Time;durP1;ratioP1;P1;durP2;ratioP2;P2;SDS_P1;SDS_P2;PMS_P1;PMS_P2;Temp;Humidity;BMP_temperature;BMP_pressure;BME280_temperature;BME280_humidity;BME280_pressure;Samples;Min_cycle;Max_cycle;Signal;HPM_P1;HPM_P2
2023/03/02 00:01:48;;;;;;;44.80;36.83;;;2.50;99.90;;;;;;4916381;29;20488;-73
2023/03/02 00:04:19;;;;;;;49.40;37.33;;;2.40;99.90;;;;;;4917641;29;20436;-73
2023/03/02 00:06:51;;;;;;;46.60;37.03;;;2.40;99.90;;;;;;4916390;29;20444;-73
2023/03/02 00:09:20;;;;;;;43.07;36.30;;;2.40;99.90;;;;;;4916400;29;20457;-73
2023/03/02 00:11:48;;;;;;;39.97;35.60;;;2.40;99.90;;;;;;4916218;29;20484;-73
2023/03/02 00:14:17;;;;;;;43.53;36.20;;;2.40;99.90;;;;;;4916261;29;20970;-73
2023/03/02 00:16:45;;;;;;;42.97;36.27;;;2.40;99.90;;;;;;4916026;29;20965;-73
2023/03/02 00:19:13;;;;;;;56.90;40.37;;;2.40;99.90;;;;;;4917651;29;20863;-73
2023/03/02 00:21:41;;;;;;;48.53;37.30;;;2.40;99.90;;;;;;4917310;29;21003;-73
2023/03/02 00:24:09;;;;;;;45.57;36.63;;;2.40;99.90;;;;;;4916170;29;20455;-73
2023/03/02 00:26:39;;;;;;;46.07;36.43;;;2.40;99.90;;;;;;4917311;29;20976;-73
2023/03/02 00:29:10;;;;;;;43.57;35.57;;;2.40;99.90;;;;;;4917499;29;20447;-73
2023/03/02 00:31:38;;;;;;;41.57;34.83;;;2.30;99.90;;;;;;4917414;29;20436;-73
2023/03/02 00:34:06;;;;;;;46.17;35.20;;;2.30;99.90;;;;;;4915974;29;20462;-73
2023/03/02 00:36:34;;;;;;;56.10;37.70;;;2.20;99.90;;;;;;4915400;29;20463;-73
2023/03/02 00:39:03;;;;;;;56.10;37.93;;;2.30;99.90;;;;;;4917249;29;20459;-73
2023/03/02 00:41:31;;;;;;;51.43;38.07;;;2.30;99.90;;;;;;4917120;29;20467;-73
2023/03/02 00:44:01;;;;;;;52.47;37.70;;;2.20;99.90;;;;;;4917202;29;20447;-73
2023/03/02 00:46:29;;;;;;;51.50;39.03;;;2.20;99.90;;;;;;4915977;29;20552;-73
2023/03/02 00:48:57;;;;;;;56.10;40.40;;;2.20;99.90;;;;;;4917155;29;20439;-73
2023/03/02 00:51:25;;;;;;;47.67;36.80;;;2.20;99.90;;;;;;4915741;29;20456;-73
2023/03/02 00:53:53;;;;;;;53.50;38.07;;;2.20;99.90;;;;;;4915812;29;20487;-73
2023/03/02 00:56:21;;;;;;;51.10;39.23;;;2.20;99.90;;;;;;4915928;29;20452;-73
2023/03/02 00:58:52;;;;;;;48.30;38.43;;;2.10;99.90;;;;;;4915795;29;20452;-73
2023/03/02 01:01:21;;;;;;;48.77;36.77;;;2.10;99.90;;;;;;4915952;29;20594;-73
2023/03/02 01:03:53;;;;;;;59.40;36.50;;;2.10;99.90;;;;;;4915654;29;20500;-73
2023/03/02 01:06:21;;;;;;;58.07;36.93;;;2.10;99.90;;;;;;4915668;29;20455;-73
2023/03/02 01:08:49;;;;;;;56.57;39.20;;;2.10;99.90;;;;;;4915624;29;20456;-73
2023/03/02 01:11:19;;;;;;;60.17;39.50;;;2.00;99.90;;;;;;4915691;29;20514;-73
2023/03/02 01:13:49;;;;;;;49.60;37.17;;;2.00;99.90;;;;;;4915621;29;20449;-73
2023/03/02 01:16:17;;;;;;;61.53;36.73;;;2.00;99.90;;;;;;4917143;29;20470;-73
2023/03/02 01:18:46;;;;;;;55.30;37.03;;;2.00;99.90;;;;;;4916726;29;20509;-73
2023/03/02 01:21:16;;;;;;;43.77;30.37;;;2.00;99.90;;;;;;4916774;29;20436;-73
2023/03/02 01:23:44;;;;;;;53.37;36.23;;;2.00;99.90;;;;;;4916670;29;20565;-73
2023/03/02 01:26:12;;;;;;;60.33;36.40;;;1.90;99.90;;;;;;4915553;29;20444;-73
2023/03/02 01:28:40;;;;;;;76.83;38.83;;;1.90;99.90;;;;;;4915662;29;20804;-73
2023/03/02 01:31:08;;;;;;;91.93;40.27;;;1.90;99.90;;;;;;4915465;29;20556;-73
2023/03/02 01:33:36;;;;;;;48.47;35.83;;;1.90;99.90;;;;;;4916629;29;20473;-73
2023/03/02 01:36:07;;;;;;;58.23;37.23;;;1.80;99.90;;;;;;4915402;29;20458;-73
2023/03/02 01:38:35;;;;;;;45.97;34.43;;;1.80;99.90;;;;;;4915699;29;20498;-73
2023/03/02 01:41:04;;;;;;;57.57;35.10;;;1.80;99.90;;;;;;4915411;29;20541;-73
2023/03/02 01:43:32;;;;;;;58.53;37.43;;;1.80;99.90;;;;;;4915285;29;20468;-73
2023/03/02 01:46:02;;;;;;;63.60;35.13;;;1.70;99.90;;;;;;4915316;29;20458;-73
2023/03/02 01:48:48;;;;;;;79.13;36.93;;;1.70;99.90;;;;;;4919060;29;20536;-73
2023/03/02 01:51:27;;;;;;;56.07;36.87;;;1.70;99.90;;;;;;4918980;29;20951;-73
2023/03/02 01:54:02;;;;;;;52.97;35.57;;;1.70;99.90;;;;;;4918781;29;20532;-73
2023/03/02 01:56:35;;;;;;;47.37;34.33;;;1.60;99.90;;;;;;4918685;29;20453;-73
2023/03/02 01:59:09;;;;;;;45.63;33.40;;;1.60;99.90;;;;;;4918676;29;20484;-73
2023/03/02 02:01:39;;;;;;;42.03;34.27;;;1.60;99.90;;;;;;4918607;29;20456;-73
2023/03/02 02:04:07;;;;;;;54.30;33.70;;;1.60;99.90;;;;;;4919961;29;20591;-73
2023/03/02 02:06:41;;;;;;;74.20;34.13;;;1.60;99.90;;;;;;4919991;29;20447;-73
2023/03/02 02:09:13;;;;;;;76.03;35.30;;;1.60;99.90;;;;;;4919762;29;20466;-73
2023/03/02 02:11:43;;;;;;;51.00;35.57;;;1.60;99.90;;;;;;4919909;29;20442;-73
2023/03/02 02:14:12;;;;;;;50.27;34.03;;;1.60;99.90;;;;;;4919723;29;20528;-73
2023/03/02 02:16:41;;;;;;;36.30;31.20;;;1.60;99.90;;;;;;4918345;29;20544;-74
2023/03/02 02:19:18;;;;;;;51.83;31.63;;;1.60;99.90;;;;;;4918328;29;20450;-73
2023/03/02 02:21:47;;;;;;;63.67;33.93;;;1.60;99.90;;;;;;4918218;29;21005;-73
2023/03/02 02:24:22;;;;;;;60.60;32.57;;;1.60;99.90;;;;;;4918140;29;20480;-73
2023/03/02 02:26:55;;;;;;;42.00;31.60;;;1.60;99.90;;;;;;4918372;29;20445;-73
2023/03/02 02:29:27;;;;;;;38.47;30.93;;;1.60;99.90;;;;;;4918167;29;20461;-73
2023/03/02 02:32:00;;;;;;;41.93;30.83;;;1.50;99.90;;;;;;4917995;29;20477;-73
2023/03/02 02:34:32;;;;;;;83.43;35.30;;;1.50;99.90;;;;;;4919345;29;20481;-73
2023/03/02 02:37:05;;;;;;;38.30;32.50;;;1.50;99.90;;;;;;4918038;29;20453;-73
2023/03/02 02:39:37;;;;;;;98.67;35.33;;;1.50;99.90;;;;;;4918137;29;20456;-73
2023/03/02 02:42:13;;;;;;;73.03;32.80;;;1.50;99.90;;;;;;4917877;29;20884;-73
2023/03/02 02:44:41;;;;;;;41.60;32.30;;;1.40;99.90;;;;;;4917800;29;20479;-73
2023/03/02 02:47:16;;;;;;;61.70;33.80;;;1.40;99.90;;;;;;4917824;29;20517;-73
2023/03/02 02:49:45;;;;;;;37.40;31.03;;;1.40;99.90;;;;;;4917730;29;20457;-73
2023/03/02 02:52:17;;;;;;;42.23;32.17;;;1.40;99.90;;;;;;4917656;29;20485;-73
2023/03/02 02:54:47;;;;;;;38.43;28.07;;;1.40;99.90;;;;;;4918925;29;20426;-73
2023/03/02 02:57:18;;;;;;;37.10;29.90;;;1.40;99.90;;;;;;4919135;29;20781;-73
2023/03/02 02:59:49;;;;;;;41.37;30.97;;;1.40;99.90;;;;;;4916799;29;20466;-73
2023/03/02 03:02:20;;;;;;;45.43;29.13;;;1.40;99.90;;;;;;4917466;29;20527;-73
2023/03/02 03:04:48;;;;;;;39.87;29.87;;;1.30;99.90;;;;;;4917424;29;20478;-73
2023/03/02 03:07:19;;;;;;;48.70;31.87;;;1.30;99.90;;;;;;4917476;29;20512;-73
2023/03/02 03:09:55;;;;;;;46.33;31.60;;;1.30;99.90;;;;;;4917974;29;20825;-73
2023/03/02 03:12:26;;;;;;;55.03;31.43;;;1.30;99.90;;;;;;4918801;29;20492;-73
2023/03/02 03:14:55;;;;;;;63.97;32.50;;;1.30;99.90;;;;;;4917324;29;20445;-73
2023/03/02 03:17:23;;;;;;;38.90;30.80;;;1.30;99.90;;;;;;4917067;29;20476;-73
2023/03/02 03:20:04;;;;;;;54.40;31.93;;;1.20;99.90;;;;;;4917828;29;20900;-73
2023/03/02 03:22:36;;;;;;;48.00;33.30;;;1.30;99.90;;;;;;4917299;29;20472;-73
2023/03/02 03:25:06;;;;;;;37.87;25.80;;;1.30;99.90;;;;;;4917134;29;20837;-73
2023/03/02 03:27:36;;;;;;;43.90;32.60;;;1.30;99.90;;;;;;4917004;29;20481;-73
2023/03/02 03:30:06;;;;;;;43.57;33.43;;;1.30;99.90;;;;;;4917319;29;20520;-73
2023/03/02 03:32:36;;;;;;;49.73;33.43;;;1.30;99.90;;;;;;4916837;29;20470;-73
2023/03/02 03:35:07;;;;;;;45.70;28.90;;;1.30;99.90;;;;;;4916955;29;20445;-73
2023/03/02 03:37:37;;;;;;;64.70;32.37;;;1.20;99.90;;;;;;4917089;29;20457;-73
2023/03/02 03:40:08;;;;;;;48.63;34.00;;;1.30;99.90;;;;;;4916792;29;20540;-73
2023/03/02 03:42:39;;;;;;;39.60;32.03;;;1.20;99.90;;;;;;4916737;29;20473;-73
2023/03/02 03:45:08;;;;;;;41.80;32.33;;;1.20;99.90;;;;;;4916679;29;20995;-73
2023/03/02 03:47:38;;;;;;;46.33;32.40;;;1.20;99.90;;;;;;4916680;29;20444;-73
2023/03/02 03:50:09;;;;;;;41.77;29.77;;;1.20;99.90;;;;;;4916590;29;20460;-73
2023/03/02 03:52:38;;;;;;;46.07;30.20;;;1.20;99.90;;;;;;4916507;29;20477;-73
2023/03/02 03:55:14;;;;;;;40.10;28.03;;;1.20;99.90;;;;;;4916575;29;20440;-73
2023/03/02 03:57:45;;;;;;;53.60;33.63;;;1.20;99.90;;;;;;4917830;29;20446;-73
2023/03/02 04:00:17;;;;;;;87.13;50.10;;;1.20;99.90;;;;;;4916512;29;20968;-73
2023/03/02 04:02:57;;;;;;;79.97;49.57;;;1.10;99.90;;;;;;4916871;29;20486;-73
2023/03/02 04:05:27;;;;;;;66.30;41.03;;;1.10;99.90;;;;;;4917118;29;20477;-73
2023/03/02 04:08:01;;;;;;;62.17;36.87;;;1.00;99.90;;;;;;4916618;29;20940;-73
2023/03/02 04:10:30;;;;;;;73.53;36.00;;;1.00;99.90;;;;;;4916247;29;20476;-73
2023/03/02 04:13:00;;;;;;;48.17;28.77;;;1.00;99.90;;;;;;4917466;29;20458;-73
2023/03/02 04:15:29;;;;;;;47.33;26.90;;;1.00;99.90;;;;;;4916289;29;20448;-73
2023/03/02 04:17:59;;;;;;;36.40;24.90;;;1.00;99.90;;;;;;4916140;29;20829;-73
2023/03/02 04:20:28;;;;;;;33.10;26.37;;;1.00;99.90;;;;;;4916202;29;20472;-73
2023/03/02 04:22:57;;;;;;;44.03;28.00;;;0.90;99.90;;;;;;4916288;29;20471;-72
2023/03/02 04:25:28;;;;;;;37.70;27.63;;;0.90;99.90;;;;;;4915940;29;20528;-73
2023/03/02 04:28:03;;;;;;;34.20;27.90;;;0.90;99.90;;;;;;4916558;29;20979;-72
2023/03/02 04:30:36;;;;;;;35.97;25.70;;;0.90;99.90;;;;;;4916099;29;20923;-73
2023/03/02 04:33:04;;;;;;;61.93;27.30;;;0.90;99.90;;;;;;4917291;29;20586;-73
2023/03/02 04:35:34;;;;;;;51.77;28.23;;;0.90;99.90;;;;;;4916124;29;20479;-73
2023/03/02 04:38:03;;;;;;;36.80;28.73;;;0.90;99.90;;;;;;4916086;29;20476;-73
2023/03/02 04:40:31;;;;;;;38.63;25.57;;;0.90;99.90;;;;;;4915979;29;20453;-73
2023/03/02 04:43:00;;;;;;;42.27;28.10;;;0.90;99.90;;;;;;4917277;29;20465;-73
2023/03/02 04:45:29;;;;;;;56.00;27.53;;;0.90;99.90;;;;;;4917080;29;20472;-73
2023/03/02 04:47:57;;;;;;;86.83;29.67;;;0.90;99.90;;;;;;4917598;29;20936;-73
2023/03/02 04:50:26;;;;;;;47.30;25.93;;;0.90;99.90;;;;;;4917046;29;20452;-73
2023/03/02 04:52:54;;;;;;;36.77;24.63;;;0.80;99.90;;;;;;4917026;29;20472;-73
2023/03/02 04:55:24;;;;;;;39.13;24.40;;;0.80;99.90;;;;;;4917005;29;20450;-73
2023/03/02 04:57:52;;;;;;;32.73;23.63;;;0.80;99.90;;;;;;4917544;29;20425;-73
2023/03/02 05:00:21;;;;;;;39.43;25.93;;;0.80;99.90;;;;;;4917098;29;20452;-73
2023/03/02 05:02:50;;;;;;;48.43;25.97;;;0.80;99.90;;;;;;4917144;29;20989;-73
2023/03/02 05:05:21;;;;;;;34.53;26.07;;;0.80;99.90;;;;;;4917191;29;20478;-73
2023/03/02 05:07:49;;;;;;;46.37;26.70;;;0.80;99.90;;;;;;4917211;29;20425;-73
2023/03/02 05:10:21;;;;;;;60.57;27.20;;;0.80;99.90;;;;;;4916904;29;20449;-73
2023/03/02 05:12:56;;;;;;;46.93;25.90;;;0.80;99.90;;;;;;4916847;29;20460;-73
2023/03/02 05:15:28;;;;;;;40.47;24.83;;;0.80;99.90;;;;;;4915698;29;20453;-72
2023/03/02 05:17:57;;;;;;;34.77;24.23;;;0.80;99.90;;;;;;4916833;29;20958;-73
2023/03/02 05:20:29;;;;;;;38.23;24.20;;;0.70;99.90;;;;;;4917031;29;20445;-72
2023/03/02 05:22:59;;;;;;;44.27;26.03;;;0.70;99.90;;;;;;4918188;29;20553;-73
2023/03/02 05:25:28;;;;;;;69.33;28.77;;;0.70;99.90;;;;;;4919221;29;20520;-72
2023/03/02 05:27:57;;;;;;;35.77;25.10;;;0.70;99.90;;;;;;4920441;29;20476;-72
2023/03/02 05:30:26;;;;;;;70.63;26.67;;;0.70;99.90;;;;;;4919208;29;20512;-72
2023/03/02 05:32:54;;;;;;;45.60;24.97;;;0.60;99.90;;;;;;4920301;29;20472;-72
2023/03/02 05:35:24;;;;;;;53.00;25.00;;;0.60;99.90;;;;;;4920456;29;20446;-72
2023/03/02 05:37:53;;;;;;;44.00;25.83;;;0.50;99.90;;;;;;4920586;29;20915;-72
2023/03/02 05:40:21;;;;;;;47.00;26.00;;;0.50;99.90;;;;;;4920308;29;20445;-72
2023/03/02 05:42:49;;;;;;;48.93;26.80;;;0.60;99.90;;;;;;4918895;29;20477;-72
2023/03/02 05:45:20;;;;;;;40.10;26.83;;;0.60;99.90;;;;;;4918865;29;20483;-72
2023/03/02 05:47:48;;;;;;;44.17;24.93;;;0.50;99.90;;;;;;4920411;29;20425;-72
2023/03/02 05:50:16;;;;;;;50.03;24.90;;;0.50;99.90;;;;;;4918735;29;20456;-72
2023/03/02 05:52:46;;;;;;;64.57;29.27;;;0.50;99.90;;;;;;4918840;29;20860;-72
2023/03/02 05:55:16;;;;;;;40.00;26.20;;;0.50;99.90;;;;;;4918750;29;20901;-72
2023/03/02 05:57:45;;;;;;;54.47;25.90;;;0.50;99.90;;;;;;4918716;29;20998;-72
2023/03/02 06:00:14;;;;;;;43.47;26.57;;;0.50;99.90;;;;;;4920491;29;20841;-72
2023/03/02 06:02:42;;;;;;;43.00;23.80;;;0.50;99.90;;;;;;4919758;29;20962;-72
2023/03/02 06:05:13;;;;;;;43.73;28.33;;;0.50;99.90;;;;;;4919737;29;21022;-72
2023/03/02 06:07:41;;;;;;;42.70;25.50;;;0.50;99.90;;;;;;4920091;29;20424;-72
2023/03/02 06:10:13;;;;;;;40.00;25.67;;;0.50;99.90;;;;;;4918447;29;20460;-72
2023/03/02 06:12:41;;;;;;;34.50;24.83;;;0.50;99.90;;;;;;4918369;29;20469;-72
2023/03/02 06:15:10;;;;;;;50.77;25.93;;;0.50;99.90;;;;;;4920120;29;20543;-72
2023/03/02 06:17:38;;;;;;;35.03;24.43;;;0.50;99.90;;;;;;4918232;29;20460;-72
2023/03/02 06:20:09;;;;;;;32.67;23.67;;;0.60;99.90;;;;;;4919585;29;20505;-72
2023/03/02 06:22:40;;;;;;;34.63;25.30;;;0.60;99.90;;;;;;4918399;29;20483;-72
2023/03/02 06:25:09;;;;;;;64.83;28.70;;;0.60;99.90;;;;;;4919875;29;20875;-72
2023/03/02 06:27:40;;;;;;;52.57;26.33;;;0.60;99.90;;;;;;4920249;29;20557;-72
2023/03/02 06:30:12;;;;;;;55.33;26.80;;;0.60;99.90;;;;;;4918327;29;20464;-72
2023/03/02 06:32:41;;;;;;;40.77;23.33;;;0.60;99.90;;;;;;4919067;29;20461;-72
2023/03/02 06:35:10;;;;;;;38.10;25.07;;;0.60;99.90;;;;;;4917538;29;20497;-72
2023/03/02 06:37:39;;;;;;;36.23;24.87;;;0.50;99.90;;;;;;4918013;29;20870;-71
2023/03/02 06:40:12;;;;;;;41.30;24.13;;;0.50;99.90;;;;;;4917981;29;20439;-72
2023/03/02 06:42:43;;;;;;;49.73;26.23;;;0.50;99.90;;;;;;4919360;29;20460;-72
2023/03/02 06:45:11;;;;;;;93.00;28.07;;;0.50;99.90;;;;;;4919086;29;20470;-72
2023/03/02 06:47:39;;;;;;;39.23;23.27;;;0.50;99.90;;;;;;4919303;29;20841;-72
2023/03/02 06:50:08;;;;;;;42.90;26.80;;;0.50;99.90;;;;;;4917785;29;20507;-72
2023/03/02 06:52:37;;;;;;;36.30;24.63;;;0.50;99.90;;;;;;4918947;29;20969;-72
2023/03/02 06:55:06;;;;;;;39.27;22.93;;;0.50;99.90;;;;;;4917637;29;20491;-72
2023/03/02 06:57:34;;;;;;;33.47;24.00;;;0.50;99.90;;;;;;4917779;29;20487;-72
2023/03/02 07:00:08;;;;;;;40.17;24.20;;;0.50;99.90;;;;;;4918880;29;20456;-72
2023/03/02 07:02:37;;;;;;;36.87;22.77;;;0.50;99.90;;;;;;4917796;29;20562;-72
2023/03/02 07:05:06;;;;;;;52.63;22.43;;;0.50;99.90;;;;;;4917421;29;21004;-72
2023/03/02 07:07:34;;;;;;;51.63;22.93;;;0.60;99.90;;;;;;4917486;29;20551;-72
2023/03/02 07:10:03;;;;;;;33.17;22.87;;;0.60;99.90;;;;;;4918696;29;20445;-72
2023/03/02 07:12:31;;;;;;;43.63;22.20;;;0.60;99.90;;;;;;4918525;29;20461;-72
2023/03/02 07:14:59;;;;;;;50.67;21.93;;;0.60;99.90;;;;;;4918600;29;20553;-72
2023/03/02 07:17:28;;;;;;;53.67;22.90;;;0.50;99.90;;;;;;4917300;29;20865;-72
2023/03/02 07:19:56;;;;;;;64.37;25.37;;;0.50;99.90;;;;;;4918499;29;20521;-72
2023/03/02 07:22:24;;;;;;;47.33;22.13;;;0.50;99.90;;;;;;4917138;29;20471;-72
2023/03/02 07:24:53;;;;;;;40.20;23.23;;;0.50;99.90;;;;;;4918924;29;20945;-72
2023/03/02 07:27:21;;;;;;;36.63;23.20;;;0.50;99.90;;;;;;4918284;29;20893;-72
2023/03/02 07:29:49;;;;;;;47.23;25.60;;;0.50;99.90;;;;;;4918347;29;20966;-72
2023/03/02 07:32:17;;;;;;;45.70;24.40;;;0.50;99.90;;;;;;4918172;29;20471;-72
2023/03/02 07:34:47;;;;;;;41.47;23.33;;;0.50;99.90;;;;;;4916992;29;20467;-72
2023/03/02 07:37:15;;;;;;;46.10;24.77;;;0.50;99.90;;;;;;4918186;29;20451;-72
2023/03/02 07:39:43;;;;;;;35.73;23.00;;;0.60;99.90;;;;;;4917129;29;20456;-72
2023/03/02 07:42:12;;;;;;;43.07;23.30;;;0.60;99.90;;;;;;4916786;29;20474;-72
2023/03/02 07:44:42;;;;;;;43.97;23.30;;;0.60;99.90;;;;;;4916459;29;20453;-72
2023/03/02 07:47:10;;;;;;;63.00;24.20;;;0.60;99.90;;;;;;4917901;29;20472;-72
2023/03/02 07:49:39;;;;;;;93.30;26.90;;;0.60;99.90;;;;;;4917911;29;20476;-72
2023/03/02 07:52:08;;;;;;;44.27;22.93;;;0.60;99.90;;;;;;4918168;29;20467;-72
2023/03/02 07:54:36;;;;;;;39.27;24.27;;;0.50;99.90;;;;;;4916609;29;20453;-72
2023/03/02 07:57:04;;;;;;;37.10;22.20;;;0.50;99.90;;;;;;4917810;29;20440;-72
2023/03/02 07:59:32;;;;;;;85.33;25.70;;;0.50;99.90;;;;;;4917839;29;20447;-72
2023/03/02 08:02:00;;;;;;;36.87;22.83;;;0.50;99.90;;;;;;4916690;29;20484;-72
2023/03/02 08:04:29;;;;;;;46.67;21.93;;;0.50;99.90;;;;;;4917717;29;20477;-72
2023/03/02 08:06:57;;;;;;;41.10;21.63;;;0.50;99.90;;;;;;4916761;29;20483;-72
2023/03/02 08:09:26;;;;;;;34.30;20.73;;;0.60;99.90;;;;;;4917561;29;20448;-72
2023/03/02 08:11:54;;;;;;;59.07;21.90;;;0.50;99.90;;;;;;4917593;29;20461;-72
2023/03/02 08:14:22;;;;;;;37.10;21.50;;;0.60;99.90;;;;;;4917640;29;20927;-72
2023/03/02 08:16:51;;;;;;;43.60;22.53;;;0.60;99.90;;;;;;4917477;29;20444;-72
2023/03/02 08:19:19;;;;;;;42.90;22.67;;;0.60;99.90;;;;;;4918068;29;20429;-72
2023/03/02 08:21:48;;;;;;;48.47;21.73;;;0.60;99.90;;;;;;4917394;29;20520;-72
2023/03/02 08:24:16;;;;;;;36.97;23.60;;;0.70;99.90;;;;;;4917736;29;20551;-72
2023/03/02 08:26:45;;;;;;;48.17;23.43;;;0.70;99.90;;;;;;4917848;29;20877;-72
2023/03/02 08:29:13;;;;;;;37.93;23.40;;;0.70;99.90;;;;;;4917596;29;20443;-72
2023/03/02 08:31:42;;;;;;;36.37;23.03;;;0.70;99.90;;;;;;4916065;29;20454;-72
2023/03/02 08:34:10;;;;;;;35.03;21.37;;;0.80;99.90;;;;;;4916104;29;20454;-72
2023/03/02 08:36:39;;;;;;;35.43;24.47;;;0.80;99.90;;;;;;4916000;29;20444;-73
2023/03/02 08:39:07;;;;;;;51.63;24.17;;;0.80;99.90;;;;;;4916105;29;20461;-72
2023/03/02 08:41:36;;;;;;;36.73;21.67;;;0.80;99.90;;;;;;4915921;29;20456;-73
2023/03/02 08:44:06;;;;;;;39.20;21.73;;;0.90;99.90;;;;;;4917406;29;20840;-73
2023/03/02 08:46:34;;;;;;;39.83;23.50;;;0.90;99.90;;;;;;4917134;29;20557;-72
2023/03/02 08:49:02;;;;;;;37.13;21.80;;;0.90;99.90;;;;;;4917284;29;20958;-72
2023/03/02 08:51:30;;;;;;;48.50;24.10;;;0.90;99.90;;;;;;4916975;29;20460;-73
2023/03/02 08:53:59;;;;;;;56.70;24.33;;;1.00;99.90;;;;;;4917015;29;20500;-72
2023/03/02 08:56:29;;;;;;;31.40;25.20;;;1.00;99.90;;;;;;4916075;29;20461;-72
2023/03/02 08:59:00;;;;;;;44.23;24.20;;;1.00;99.90;;;;;;4921042;29;20960;-72
2023/03/02 09:01:30;;;;;;;54.70;24.10;;;1.00;99.90;;;;;;4920930;29;20430;-72
2023/03/02 09:04:00;;;;;;;43.87;24.53;;;1.00;99.90;;;;;;4921201;29;20529;-72
2023/03/02 09:06:30;;;;;;;64.50;22.83;;;1.00;99.90;;;;;;4920740;29;20558;-72
2023/03/02 09:08:58;;;;;;;42.13;23.00;;;1.10;99.90;;;;;;4921010;29;20437;-72
2023/03/02 09:11:27;;;;;;;48.73;24.27;;;1.10;99.90;;;;;;4919663;29;20461;-72
2023/03/02 09:13:55;;;;;;;36.27;21.90;;;1.10;99.90;;;;;;4921031;29;20444;-72
2023/03/02 09:16:24;;;;;;;30.57;21.90;;;1.10;99.90;;;;;;4920593;29;20439;-72
2023/03/02 09:18:54;;;;;;;41.50;22.30;;;1.10;99.90;;;;;;4919300;29;20505;-72
2023/03/02 09:21:23;;;;;;;31.23;23.93;;;1.10;99.90;;;;;;4920936;29;20508;-72
2023/03/02 09:23:52;;;;;;;38.57;22.27;;;1.10;99.90;;;;;;4919333;29;21075;-72
2023/03/02 09:26:20;;;;;;;32.33;22.93;;;1.10;99.90;;;;;;4920516;29;20553;-72
2023/03/02 09:28:48;;;;;;;32.43;22.33;;;1.20;99.90;;;;;;4919190;29;20449;-72
2023/03/02 09:31:16;;;;;;;51.67;25.33;;;1.20;99.90;;;;;;4919240;29;20458;-72
2023/03/02 09:33:45;;;;;;;49.73;24.67;;;1.20;99.90;;;;;;4920315;29;20495;-72
2023/03/02 09:36:20;;;;;;;39.40;25.43;;;1.20;99.90;;;;;;4920356;29;20445;-72
2023/03/02 09:38:49;;;;;;;33.70;24.83;;;1.30;99.90;;;;;;4920987;29;20441;-72
2023/03/02 09:41:47;;;;;;;47.33;24.87;;;1.30;99.90;;;;;;4920226;29;20532;-72
2023/03/02 09:44:32;;;;;;;40.63;22.90;;;1.30;99.90;;;;;;4919035;29;20469;-72
2023/03/02 09:47:04;;;;;;;32.73;23.27;;;1.40;99.90;;;;;;4920725;29;20467;-72
2023/03/02 09:49:46;;;;;;;33.50;23.47;;;1.40;99.90;;;;;;4920161;29;20523;-72
2023/03/02 09:52:29;;;;;;;43.63;22.53;;;1.40;99.90;;;;;;4920024;29;20461;-72
2023/03/02 09:55:00;;;;;;;56.00;24.73;;;1.40;99.90;;;;;;4920384;29;20417;-72
2023/03/02 09:57:32;;;;;;;36.10;23.97;;;1.40;99.90;;;;;;4920097;29;20786;-72
2023/03/02 10:00:04;;;;;;;32.93;23.53;;;1.50;99.90;;;;;;4920186;29;20433;-72
2023/03/02 10:02:49;;;;;;;35.17;24.20;;;1.50;99.90;;;;;;4919885;29;20480;-72
2023/03/02 10:05:21;;;;;;;38.43;24.60;;;1.50;99.90;;;;;;4920449;29;20543;-72
2023/03/02 10:07:50;;;;;;;33.87;24.27;;;1.60;99.90;;;;;;4919800;29;20513;-72
2023/03/02 10:10:26;;;;;;;39.23;25.43;;;1.60;99.90;;;;;;4919708;29;20468;-72
2023/03/02 10:13:08;;;;;;;43.23;25.67;;;1.60;99.90;;;;;;4919704;29;20993;-72
2023/03/02 10:15:41;;;;;;;37.97;24.70;;;1.60;99.90;;;;;;4918534;29;20463;-72
2023/03/02 10:18:18;;;;;;;33.10;25.20;;;1.60;99.90;;;;;;4919768;29;21013;-72
2023/03/02 10:20:51;;;;;;;33.60;23.80;;;1.70;99.90;;;;;;4918661;29;20465;-72
2023/03/02 10:23:38;;;;;;;43.63;26.23;;;1.70;99.90;;;;;;4919480;29;20469;-72
2023/03/02 10:26:16;;;;;;;40.90;26.90;;;1.70;99.90;;;;;;4919569;29;20525;-72
2023/03/02 10:28:48;;;;;;;33.63;24.90;;;1.70;99.90;;;;;;4918169;29;20488;-72
2023/03/02 10:31:24;;;;;;;39.50;28.23;;;1.70;99.90;;;;;;4918384;29;20552;-72
2023/03/02 10:33:53;;;;;;;38.67;27.23;;;1.80;99.90;;;;;;4919814;29;20457;-72
2023/03/02 10:36:24;;;;;;;44.73;26.97;;;1.80;99.90;;;;;;4920295;29;20451;-72
2023/03/02 10:38:55;;;;;;;38.13;27.17;;;1.90;99.90;;;;;;4918962;29;20942;-72
2023/03/02 10:41:30;;;;;;;40.90;27.70;;;1.90;99.90;;;;;;4919315;29;20423;-72
2023/03/02 10:44:03;;;;;;;42.37;26.40;;;2.00;99.90;;;;;;4918106;29;20453;-72
2023/03/02 10:46:40;;;;;;;45.03;27.27;;;2.00;99.90;;;;;;4917976;29;20936;-72
2023/03/02 10:49:25;;;;;;;33.40;24.40;;;2.10;99.90;;;;;;4919567;29;21048;-72
2023/03/02 10:52:01;;;;;;;37.50;26.43;;;2.10;99.90;;;;;;4920549;29;20472;-72
2023/03/02 10:54:35;;;;;;;42.70;28.23;;;2.20;99.90;;;;;;4924549;29;20510;-72
2023/03/02 10:57:05;;;;;;;41.53;27.20;;;2.30;99.90;;;;;;4924304;29;20454;-73
2023/03/02 10:59:43;;;;;;;38.63;26.57;;;2.30;99.90;;;;;;4924230;29;20969;-73
2023/03/02 11:02:22;;;;;;;36.87;25.00;;;2.30;99.90;;;;;;4924344;29;20515;-73
2023/03/02 11:04:55;;;;;;;34.30;23.33;;;2.30;99.90;;;;;;4919586;29;20444;-73
2023/03/02 11:07:27;;;;;;;33.90;25.70;;;2.40;99.90;;;;;;4920818;29;20464;-73
2023/03/02 11:10:02;;;;;;;39.67;25.97;;;2.30;99.90;;;;;;4918618;29;20447;-72
2023/03/02 11:12:31;;;;;;;37.30;25.03;;;2.40;99.90;;;;;;4918308;29;20473;-73
2023/03/02 11:15:23;;;;;;;34.07;25.53;;;2.40;99.90;;;;;;4918585;29;20454;-72
2023/03/02 11:17:59;;;;;;;35.23;24.30;;;2.40;99.90;;;;;;4918790;29;20963;-73
2023/03/02 11:20:31;;;;;;;50.83;24.83;;;2.50;99.90;;;;;;4918165;29;20432;-72
2023/03/02 11:23:17;;;;;;;36.10;24.77;;;2.50;99.90;;;;;;4918508;29;20526;-73
2023/03/02 11:25:52;;;;;;;30.57;23.33;;;2.50;99.90;;;;;;4918397;29;20789;-72
2023/03/02 11:28:38;;;;;;;41.23;24.00;;;2.50;99.90;;;;;;4917150;29;20511;-72
2023/03/02 11:31:14;;;;;;;32.53;24.23;;;2.60;99.90;;;;;;4917077;29;20454;-73
2023/03/02 11:33:50;;;;;;;34.73;25.03;;;2.70;99.90;;;;;;4918225;29;20505;-72
2023/03/02 11:36:24;;;;;;;35.57;24.80;;;2.60;99.90;;;;;;4918515;29;20436;-72
2023/03/02 11:38:55;;;;;;;30.97;24.10;;;2.60;99.90;;;;;;4918471;29;20423;-73
2023/03/02 11:41:30;;;;;;;30.20;23.00;;;2.60;99.90;;;;;;4916909;29;20508;-72
2023/03/02 11:44:01;;;;;;;34.70;24.70;;;2.70;99.90;;;;;;4918323;29;20449;-73
2023/03/02 11:46:32;;;;;;;32.37;23.93;;;2.70;99.90;;;;;;4916799;29;20528;-73
2023/03/02 11:49:04;;;;;;;30.93;24.53;;;2.80;99.90;;;;;;4918185;29;20472;-72
2023/03/02 11:51:35;;;;;;;57.97;37.20;;;2.80;99.90;;;;;;4916658;29;20466;-73
2023/03/02 11:54:15;;;;;;;116.93;61.90;;;2.90;99.90;;;;;;4916860;29;20517;-73
2023/03/02 11:56:45;;;;;;;113.73;71.93;;;2.90;99.90;;;;;;4916853;29;20511;-72
2023/03/02 11:59:18;;;;;;;124.03;68.93;;;2.90;99.90;;;;;;4917798;29;20440;-72
2023/03/02 12:01:50;;;;;;;105.33;64.70;;;2.80;99.90;;;;;;4918328;29;21074;-72
2023/03/02 12:04:28;;;;;;;106.23;65.43;;;2.70;99.90;;;;;;4917765;29;20792;-72
2023/03/02 12:06:56;;;;;;;97.80;60.90;;;2.70;99.90;;;;;;4917991;29;20448;-72
2023/03/02 12:09:34;;;;;;;100.67;60.03;;;2.60;99.90;;;;;;4917593;29;20486;-72
2023/03/02 12:12:27;;;;;;;102.97;61.43;;;2.60;99.90;;;;;;4916404;29;20474;-72
2023/03/02 12:14:55;;;;;;;100.00;61.73;;;2.70;99.90;;;;;;4916366;29;20798;-72
2023/03/02 12:17:32;;;;;;;112.47;70.40;;;2.70;99.90;;;;;;4916110;29;20460;-73
2023/03/02 12:20:27;;;;;;;107.97;67.30;;;2.80;99.90;;;;;;4918142;29;20475;-72
2023/03/02 12:23:10;;;;;;;97.63;62.53;;;2.80;99.90;;;;;;4904987;29;21006;-72
2023/03/02 12:25:48;;;;;;;98.43;65.70;;;2.90;99.90;;;;;;4917520;29;20473;-72
2023/03/02 12:28:29;;;;;;;107.73;70.77;;;3.00;99.90;;;;;;4917349;29;20464;-72
2023/03/02 12:31:04;;;;;;;104.80;69.90;;;3.00;99.90;;;;;;4916326;29;20504;-72
2023/03/02 12:33:32;;;;;;;105.33;69.37;;;3.10;99.90;;;;;;4918183;29;20466;-72
2023/03/02 12:36:10;;;;;;;88.00;65.50;;;3.10;99.90;;;;;;4917539;29;20448;-72
2023/03/02 12:38:40;;;;;;;96.63;65.57;;;3.10;99.90;;;;;;4917542;29;20436;-72
2023/03/02 12:41:25;;;;;;;83.60;62.83;;;3.20;99.90;;;;;;4917544;29;20520;-72
2023/03/02 12:44:07;;;;;;;90.27;63.87;;;3.20;99.90;;;;;;4917471;29;20431;-73
2023/03/02 12:46:36;;;;;;;86.13;62.53;;;3.20;99.90;;;;;;4917351;29;20456;-72
2023/03/02 12:49:16;;;;;;;78.00;57.60;;;3.20;99.90;;;;;;4917115;29;21015;-73
2023/03/02 12:51:51;;;;;;;83.33;59.50;;;3.20;99.90;;;;;;4917363;29;20958;-72
2023/03/02 12:54:22;;;;;;;79.80;57.47;;;3.20;99.90;;;;;;4917114;29;20435;-73
2023/03/02 12:56:50;;;;;;;75.97;55.57;;;3.20;99.90;;;;;;4917353;29;20498;-73